createdAt,value
2023-02-13T00:01:55.548Z,26.33
2023-02-13T00:04:22.258Z,25.00
2023-02-13T00:06:49.002Z,28.38
2023-02-13T00:09:15.697Z,28.40
2023-02-13T00:11:42.308Z,23.50
2023-02-13T00:14:09.019Z,25.02
2023-02-13T00:16:35.966Z,22.73
2023-02-13T00:19:02.717Z,23.70
2023-02-13T00:21:29.385Z,26.02
2023-02-13T00:23:55.997Z,22.20
2023-02-13T00:26:22.730Z,23.73
2023-02-13T00:28:49.429Z,27.60
2023-02-13T00:31:18.557Z,20.83
2023-02-13T00:33:45.415Z,20.30
2023-02-13T00:36:15.311Z,23.45
2023-02-13T00:38:42.854Z,20.73
2023-02-13T00:41:10.926Z,20.48
2023-02-13T00:43:37.985Z,23.65
2023-02-13T00:46:04.860Z,18.95
2023-02-13T00:48:33.631Z,20.33
2023-02-13T00:51:00.863Z,18.00
2023-02-13T00:53:27.919Z,18.90
2023-02-13T00:55:54.518Z,18.52
2023-02-13T00:58:21.315Z,18.17
2023-02-13T01:00:47.961Z,16.95
2023-02-13T01:03:15.959Z,17.95
2023-02-13T01:05:43.481Z,16.23
2023-02-13T01:08:10.935Z,16.08
2023-02-13T01:10:39.188Z,16.90
2023-02-13T01:13:06.548Z,17.88
2023-02-13T01:15:33.823Z,16.88
2023-02-13T01:18:01.075Z,16.52
2023-02-13T01:20:28.844Z,17.45
2023-02-13T01:22:55.677Z,12.88
2023-02-13T01:25:23.034Z,16.67
2023-02-13T01:27:49.836Z,14.95
2023-02-13T01:30:18.209Z,19.25
2023-02-13T01:32:47.776Z,15.32
2023-02-13T01:35:16.048Z,16.65
2023-02-13T01:37:43.300Z,16.50
2023-02-13T01:40:13.532Z,15.00
2023-02-13T01:42:40.431Z,19.80
2023-02-13T01:45:19.771Z,14.18
2023-02-13T01:47:57.342Z,15.82
2023-02-13T01:50:35.102Z,17.15
2023-02-13T01:53:27.195Z,19.05
2023-02-13T01:56:00.218Z,15.50
2023-02-13T01:58:33.203Z,17.25
2023-02-13T02:01:01.077Z,19.55
2023-02-13T02:03:36.823Z,18.35
2023-02-13T02:06:04.826Z,17.10
2023-02-13T02:08:32.052Z,19.25
2023-02-13T02:11:06.921Z,20.85
2023-02-13T02:13:33.609Z,19.02
2023-02-13T02:16:00.619Z,19.25
2023-02-13T02:18:27.394Z,17.52
2023-02-13T02:21:22.509Z,21.15
2023-02-13T02:24:23.037Z,18.67
2023-02-13T02:27:09.137Z,18.48
2023-02-13T02:30:00.548Z,17.95
2023-02-13T02:32:31.701Z,17.55
2023-02-13T02:35:13.090Z,17.58
2023-02-13T02:37:51.612Z,16.85
2023-02-13T02:40:27.777Z,19.60
2023-02-13T02:43:06.477Z,19.65
2023-02-13T02:45:55.640Z,21.23
2023-02-13T02:49:01.474Z,23.00
2023-02-13T02:51:39.198Z,21.88
2023-02-13T02:54:41.007Z,24.92
2023-02-13T02:57:14.770Z,24.85
2023-02-13T03:00:01.991Z,20.00
2023-02-13T03:02:49.211Z,19.17
2023-02-13T03:05:48.368Z,20.05
2023-02-13T03:08:35.943Z,21.08
2023-02-13T03:11:31.959Z,22.67
2023-02-13T03:14:01.446Z,19.98
2023-02-13T03:16:46.836Z,21.50
2023-02-13T03:19:44.090Z,20.92
2023-02-13T03:22:23.738Z,19.50
2023-02-13T03:28:01.391Z,20.92
2023-02-13T03:30:38.894Z,22.00
2023-02-13T03:33:36.743Z,21.02
2023-02-13T03:37:00.116Z,25.05
2023-02-13T03:39:46.812Z,27.42
2023-02-13T03:42:28.557Z,25.90
2023-02-13T03:45:20.518Z,23.33
2023-02-13T03:47:49.730Z,21.05
2023-02-13T03:50:17.881Z,22.35
2023-02-13T03:53:00.123Z,26.20
2023-02-13T03:55:50.882Z,25.85
2023-02-13T03:58:40.602Z,25.55
2023-02-13T04:01:09.839Z,29.92
2023-02-13T04:04:17.886Z,24.63
2023-02-13T04:06:52.460Z,28.52
2023-02-13T04:09:19.780Z,25.00
2023-02-13T04:12:00.143Z,24.92
2023-02-13T04:14:42.610Z,26.08
2023-02-13T04:17:17.500Z,26.45
2023-02-13T04:19:44.303Z,29.48
2023-02-13T04:22:12.318Z,24.90
2023-02-13T04:24:38.962Z,24.25
2023-02-13T04:27:05.678Z,34.42
2023-02-13T04:29:32.273Z,30.27
2023-02-13T04:31:58.987Z,26.02
2023-02-13T04:34:25.682Z,23.77
2023-02-13T04:36:52.271Z,25.15
2023-02-13T04:39:19.167Z,23.90
2023-02-13T04:41:45.802Z,22.45
2023-02-13T04:44:12.442Z,24.85
2023-02-13T04:46:39.078Z,22.60
2023-02-13T04:49:05.918Z,23.88
2023-02-13T04:51:32.555Z,23.33
2023-02-13T04:53:59.195Z,17.77
2023-02-13T04:56:25.826Z,34.65
2023-02-13T04:58:52.679Z,23.60
2023-02-13T05:01:19.565Z,25.10
2023-02-13T05:03:46.226Z,20.45
2023-02-13T05:06:13.006Z,24.77
2023-02-13T05:08:39.639Z,20.00
2023-02-13T05:11:06.767Z,26.17
2023-02-13T05:13:33.955Z,23.90
2023-02-13T05:16:00.712Z,23.88
2023-02-13T05:18:27.435Z,28.98
2023-02-13T05:21:12.494Z,20.45
2023-02-13T05:23:39.091Z,29.58
2023-02-13T05:26:05.770Z,26.30
2023-02-13T05:28:51.277Z,23.02
2023-02-13T05:31:18.152Z,24.45
2023-02-13T05:33:44.866Z,28.67
2023-02-13T05:36:11.460Z,29.38
2023-02-13T05:38:38.130Z,33.08
2023-02-13T05:41:04.798Z,40.35
2023-02-13T05:43:31.406Z,28.92
2023-02-13T05:46:06.474Z,30.50
2023-02-13T05:48:33.600Z,32.80
2023-02-13T05:51:00.549Z,38.85
2023-02-13T05:53:27.650Z,28.40
2023-02-13T05:55:54.232Z,32.60
2023-02-13T05:58:21.565Z,29.40
2023-02-13T06:00:48.513Z,30.20
2023-02-13T06:03:15.451Z,27.92
2023-02-13T06:05:42.027Z,34.60
2023-02-13T06:08:08.728Z,31.67
2023-02-13T06:10:35.299Z,36.33
2023-02-13T06:13:01.908Z,31.50
2023-02-13T06:15:29.359Z,31.77
2023-02-13T06:17:56.140Z,35.35
2023-02-13T06:20:22.788Z,34.70
2023-02-13T06:22:52.938Z,29.23
2023-02-13T06:25:20.045Z,29.45
2023-02-13T06:27:46.861Z,32.45
2023-02-13T06:30:14.656Z,29.35
2023-02-13T06:32:41.586Z,30.90
2023-02-13T06:35:08.831Z,24.80
2023-02-13T06:37:36.033Z,28.88
2023-02-13T06:40:02.981Z,29.77
2023-02-13T06:42:29.589Z,28.55
2023-02-13T06:44:56.319Z,29.77
2023-02-13T06:47:22.931Z,36.53
2023-02-13T06:49:49.532Z,32.38
2023-02-13T06:52:16.401Z,27.42
2023-02-13T06:54:47.734Z,28.00
2023-02-13T06:57:15.251Z,30.08
2023-02-13T06:59:42.156Z,31.77
2023-02-13T07:02:12.747Z,27.88
2023-02-13T07:04:40.077Z,26.88
2023-02-13T07:07:06.676Z,28.77
2023-02-13T07:09:33.341Z,33.42
2023-02-13T07:12:03.792Z,36.80
2023-02-13T07:14:30.489Z,27.98
2023-02-13T07:16:57.960Z,27.17
2023-02-13T07:19:24.798Z,26.23
2023-02-13T07:21:51.409Z,23.15
2023-02-13T07:24:18.020Z,24.17
2023-02-13T07:26:44.743Z,26.38
2023-02-13T07:29:12.386Z,23.15
2023-02-13T07:31:40.114Z,23.83
2023-02-13T07:34:07.231Z,21.25
2023-02-13T07:36:34.447Z,26.75
2023-02-13T07:39:01.109Z,21.40
2023-02-13T07:41:27.771Z,22.13
2023-02-13T07:43:54.785Z,22.23
2023-02-13T07:46:21.779Z,18.08
2023-02-13T07:48:48.580Z,19.00
2023-02-13T07:51:16.347Z,18.67
2023-02-13T07:53:43.384Z,19.88
2023-02-13T07:56:10.930Z,15.38
2023-02-13T07:58:40.472Z,16.55
2023-02-13T08:01:12.741Z,17.90
2023-02-13T08:03:39.705Z,15.02
2023-02-13T08:06:07.104Z,17.30
2023-02-13T08:08:34.820Z,19.27
2023-02-13T08:11:47.282Z,17.08
2023-02-13T08:14:13.932Z,16.35
2023-02-13T08:16:40.562Z,18.38
2023-02-13T08:19:07.181Z,19.38
2023-02-13T08:21:35.200Z,19.13
2023-02-13T08:24:01.915Z,18.98
2023-02-13T08:26:31.538Z,17.95
2023-02-13T08:31:25.416Z,15.45
2023-02-13T08:33:52.253Z,16.15
2023-02-13T08:36:19.902Z,14.35
2023-02-13T08:38:47.463Z,15.90
2023-02-13T08:41:14.795Z,17.77
2023-02-13T08:43:41.458Z,17.52
2023-02-13T08:46:08.136Z,20.05
2023-02-13T08:48:34.820Z,15.30
2023-02-13T08:51:06.795Z,18.17
2023-02-13T08:53:34.407Z,22.38
2023-02-13T08:56:01.169Z,17.40
2023-02-13T08:58:28.262Z,17.20
2023-02-13T09:00:54.925Z,17.35
2023-02-13T09:03:21.607Z,19.70
2023-02-13T09:05:48.311Z,21.13
2023-02-13T09:08:16.612Z,20.50
2023-02-13T09:10:44.421Z,14.48
2023-02-13T09:13:11.322Z,14.30
2023-02-13T09:15:41.651Z,13.70
2023-02-13T09:18:08.481Z,13.88
2023-02-13T09:20:36.245Z,14.43
2023-02-13T09:23:03.197Z,13.88
2023-02-13T09:25:29.965Z,12.88
2023-02-13T09:27:56.798Z,12.60
2023-02-13T09:30:23.874Z,17.38
2023-02-13T09:32:52.195Z,17.05
2023-02-13T09:35:19.936Z,14.05
2023-02-13T09:37:46.642Z,12.95
2023-02-13T09:40:29.336Z,19.77
2023-02-13T09:43:11.904Z,17.77
2023-02-13T09:45:39.166Z,18.05
2023-02-13T09:48:06.457Z,17.80
2023-02-13T09:50:35.094Z,15.45
2023-02-13T09:53:04.160Z,20.38
2023-02-13T09:55:47.311Z,18.02
2023-02-13T09:58:27.384Z,19.65
2023-02-13T10:00:59.203Z,16.08
2023-02-13T10:03:39.578Z,18.73
2023-02-13T10:06:49.893Z,18.48
2023-02-13T10:09:54.581Z,18.42
2023-02-13T10:12:45.914Z,16.85
2023-02-13T10:15:25.872Z,15.27
2023-02-13T10:18:15.316Z,16.35
2023-02-13T10:20:54.536Z,18.88
2023-02-13T10:23:30.092Z,19.17
2023-02-13T10:26:01.152Z,16.15
2023-02-13T10:28:37.340Z,17.10
2023-02-13T10:31:17.984Z,19.17
2023-02-13T10:33:55.885Z,23.35
2023-02-13T10:36:27.632Z,19.15
2023-02-13T10:39:04.758Z,17.88
2023-02-13T10:41:57.887Z,21.70
2023-02-13T10:44:41.362Z,19.50
2023-02-13T10:47:11.009Z,22.73
2023-02-13T10:52:30.194Z,24.42
2023-02-13T10:55:13.499Z,26.02
2023-02-13T10:57:46.106Z,21.23
2023-02-13T11:00:31.981Z,22.58
2023-02-13T11:02:59.855Z,21.40
2023-02-13T11:05:38.014Z,21.65
2023-02-13T11:08:17.451Z,22.38
2023-02-13T11:10:44.105Z,22.55
2023-02-13T11:13:25.118Z,22.92
2023-02-13T11:16:04.296Z,25.92
2023-02-13T11:18:38.142Z,24.25
2023-02-13T11:21:09.339Z,20.60
2023-02-13T11:23:45.847Z,17.95
2023-02-13T11:26:29.292Z,22.73
2023-02-13T11:29:01.798Z,24.27
2023-02-13T11:31:37.750Z,19.98
2023-02-13T11:34:22.601Z,20.35
2023-02-13T11:36:53.849Z,24.15
2023-02-13T11:39:27.033Z,20.48
2023-02-13T11:41:53.660Z,19.27
2023-02-13T11:44:30.066Z,17.17
2023-02-13T11:46:59.910Z,18.10
2023-02-13T11:49:29.512Z,17.20
2023-02-13T11:54:43.121Z,18.40
2023-02-13T11:57:28.261Z,19.10
2023-02-13T11:59:55.031Z,15.93
2023-02-13T12:02:24.594Z,21.73
2023-02-13T12:07:25.288Z,17.38
2023-02-13T12:10:18.929Z,14.48
2023-02-13T12:12:59.247Z,18.92
2023-02-13T12:15:29.629Z,16.20
2023-02-13T12:18:25.442Z,16.92
2023-02-13T12:21:04.155Z,13.18
2023-02-13T12:23:55.618Z,16.17
2023-02-13T12:26:42.813Z,14.57
2023-02-13T12:29:41.022Z,14.65
2023-02-13T12:32:19.457Z,13.90
2023-02-13T12:34:58.121Z,13.63
2023-02-13T12:37:43.230Z,16.30
2023-02-13T12:40:24.976Z,12.10
2023-02-13T12:43:31.997Z,13.32
2023-02-13T12:46:10.600Z,13.20
2023-02-13T12:49:05.507Z,13.88
2023-02-13T12:51:49.647Z,16.05
2023-02-13T12:54:19.265Z,12.48
2023-02-13T12:59:43.468Z,13.15
2023-02-13T13:02:23.971Z,11.93
2023-02-13T13:05:27.425Z,16.08
2023-02-13T13:08:12.110Z,14.18
2023-02-13T13:11:15.402Z,15.68
2023-02-13T13:13:44.974Z,17.15
2023-02-13T13:17:04.293Z,16.35
2023-02-13T13:19:55.681Z,13.20
2023-02-13T13:22:32.946Z,16.67
2023-02-13T13:25:16.317Z,15.75
2023-02-13T13:27:46.203Z,13.32
2023-02-13T13:30:15.810Z,12.18
2023-02-13T13:32:44.620Z,15.15
2023-02-13T13:35:20.180Z,12.47
2023-02-13T13:38:14.924Z,13.88
2023-02-13T13:41:09.273Z,9.77
2023-02-13T13:43:50.971Z,16.92
2023-02-13T13:46:56.868Z,8.43
2023-02-13T13:49:44.951Z,9.93
2023-02-13T13:52:34.204Z,14.35
2023-02-13T13:55:04.345Z,11.73
2023-02-13T13:57:33.888Z,14.93
2023-02-13T14:00:14.149Z,13.23
2023-02-13T14:03:21.268Z,14.57
2023-02-13T14:06:06.976Z,15.85
2023-02-13T14:08:39.724Z,13.95
2023-02-13T14:11:25.367Z,13.50
2023-02-13T14:13:52.593Z,16.33
2023-02-13T14:16:38.042Z,14.10
2023-02-13T14:19:06.061Z,13.98
2023-02-13T14:21:32.814Z,14.45
2023-02-13T14:24:03.888Z,14.20
2023-02-13T14:26:33.943Z,12.38
2023-02-13T14:29:25.681Z,16.60
2023-02-13T14:32:18.075Z,15.25
2023-02-13T14:34:53.534Z,15.85
2023-02-13T14:37:32.282Z,12.40
2023-02-13T14:40:20.150Z,14.07
2023-02-13T14:42:53.764Z,11.48
2023-02-13T14:45:28.319Z,12.07
2023-02-13T14:47:57.341Z,16.00
2023-02-13T14:50:31.594Z,12.65
2023-02-13T14:53:04.437Z,12.88
2023-02-13T14:55:35.482Z,13.02
2023-02-13T14:58:20.292Z,13.88
2023-02-13T15:01:11.556Z,14.02
2023-02-13T15:03:49.041Z,12.20
2023-02-13T15:06:39.016Z,10.30
2023-02-13T15:09:18.075Z,7.28
2023-02-13T15:11:45.320Z,6.95
2023-02-13T15:14:19.125Z,11.30
2023-02-13T15:16:50.194Z,7.88
2023-02-13T15:19:19.513Z,5.90
2023-02-13T15:22:01.878Z,8.32
2023-02-13T15:24:36.739Z,7.68
2023-02-13T15:27:06.440Z,7.97
2023-02-13T15:32:20.741Z,9.45
2023-02-13T15:34:48.849Z,8.43
2023-02-13T15:37:23.698Z,6.65
2023-02-13T15:39:50.644Z,7.82
2023-02-13T15:42:17.287Z,6.10
2023-02-13T15:44:47.932Z,5.28
2023-02-13T15:47:28.086Z,6.15
2023-02-13T15:49:55.313Z,6.30
2023-02-13T15:52:26.949Z,8.65
2023-02-13T15:54:55.765Z,5.75
2023-02-13T15:57:24.065Z,10.93
2023-02-13T15:59:52.208Z,4.75
2023-02-13T16:02:21.319Z,4.82
2023-02-13T16:04:51.350Z,5.93
2023-02-13T16:07:18.577Z,10.55
2023-02-13T16:09:45.278Z,8.43
2023-02-13T16:12:25.388Z,7.55
2023-02-13T16:14:59.900Z,9.63
2023-02-13T16:17:31.547Z,9.40
2023-02-13T16:20:02.615Z,7.95
2023-02-13T16:22:39.475Z,6.90
2023-02-13T16:25:12.136Z,6.20
2023-02-13T16:27:48.210Z,10.30
2023-02-13T16:30:37.952Z,11.80
2023-02-13T16:33:14.484Z,7.13
2023-02-13T16:35:45.270Z,7.07
2023-02-13T16:38:25.644Z,4.57
2023-02-13T16:40:52.628Z,8.38
2023-02-13T16:43:39.535Z,7.75
2023-02-13T16:46:15.165Z,4.90
2023-02-13T16:48:43.943Z,6.25
2023-02-13T16:51:11.357Z,7.87
2023-02-13T16:53:39.392Z,7.32
2023-02-13T16:56:08.361Z,6.82
2023-02-13T16:58:35.026Z,5.88
2023-02-13T17:01:04.687Z,5.55
2023-02-13T17:06:04.276Z,5.28
2023-02-13T17:08:31.827Z,6.07
2023-02-13T17:11:04.701Z,7.45
2023-02-13T17:13:31.411Z,4.68
2023-02-13T17:15:59.319Z,6.60
2023-02-13T17:18:27.284Z,6.93
2023-02-13T17:20:54.752Z,6.53
2023-02-13T17:23:24.441Z,8.15
2023-02-13T17:28:27.677Z,6.95
2023-02-13T17:30:57.152Z,8.63
2023-02-13T17:35:51.660Z,23.73
2023-02-13T17:38:18.599Z,14.95
2023-02-13T17:40:46.171Z,8.80
2023-02-13T17:43:14.333Z,9.07
2023-02-13T17:45:41.257Z,6.40
2023-02-13T17:48:08.196Z,12.65
2023-02-13T17:50:36.224Z,8.20
2023-02-13T17:53:05.785Z,7.35
2023-02-13T17:55:33.480Z,9.73
2023-02-13T17:58:00.667Z,8.80
2023-02-13T18:00:30.938Z,6.88
2023-02-13T18:02:59.422Z,8.90
2023-02-13T18:05:27.561Z,22.92
2023-02-13T18:07:54.580Z,7.45
2023-02-13T18:10:23.997Z,9.38
2023-02-13T18:12:52.037Z,8.18
2023-02-13T18:15:19.571Z,11.77
2023-02-13T18:17:46.684Z,115.78
2023-02-13T18:20:19.040Z,19.65
2023-02-13T18:22:46.158Z,10.93
2023-02-13T18:25:13.451Z,11.27
2023-02-13T18:27:40.165Z,7.75
2023-02-13T18:30:07.960Z,9.35
2023-02-13T18:32:34.922Z,11.00
2023-02-13T18:35:02.639Z,8.68
2023-02-13T18:37:30.017Z,9.55
2023-02-13T18:39:57.179Z,10.15
2023-02-13T18:42:24.050Z,8.48
2023-02-13T18:44:50.958Z,10.07
2023-02-13T18:47:18.164Z,10.63
2023-02-13T18:49:47.685Z,13.82
2023-02-13T18:52:14.664Z,14.02
2023-02-13T18:54:41.223Z,11.05
2023-02-13T18:57:07.923Z,11.45
2023-02-13T18:59:34.591Z,9.80
2023-02-13T19:02:03.194Z,9.07
2023-02-13T19:04:30.870Z,9.05
2023-02-13T19:06:57.647Z,8.80
2023-02-13T19:09:24.351Z,7.63
2023-02-13T19:11:51.612Z,8.02
2023-02-13T19:14:18.324Z,11.82
2023-02-13T19:16:44.984Z,10.07
2023-02-13T19:19:11.727Z,7.15
2023-02-13T19:21:39.693Z,7.30
2023-02-13T19:24:08.807Z,15.95
2023-02-13T19:26:36.072Z,12.00
2023-02-13T19:29:03.317Z,12.45
2023-02-13T19:31:32.002Z,13.45
2023-02-13T19:34:00.515Z,11.10
2023-02-13T19:36:29.176Z,12.57
2023-02-13T19:38:58.273Z,16.30
2023-02-13T19:41:25.460Z,10.38
2023-02-13T19:43:55.625Z,10.57
2023-02-13T19:46:33.079Z,11.32
2023-02-13T19:49:00.140Z,11.43
2023-02-13T19:51:29.791Z,13.45
2023-02-13T19:56:26.298Z,24.25
2023-02-13T20:01:22.541Z,14.32
2023-02-13T20:03:50.120Z,12.50
2023-02-13T20:06:19.795Z,13.38
2023-02-13T20:11:15.516Z,12.57
2023-02-13T20:13:42.348Z,13.10
2023-02-13T20:16:11.932Z,17.95
2023-02-13T20:21:10.424Z,14.50
2023-02-13T20:23:37.430Z,12.55
2023-02-13T20:26:10.818Z,15.70
2023-02-13T20:28:38.038Z,18.05
2023-02-13T20:31:15.402Z,16.95
2023-02-13T20:33:43.997Z,16.52
2023-02-13T20:36:22.819Z,18.95
2023-02-13T20:38:51.922Z,14.35
2023-02-13T20:41:21.413Z,17.30
2023-02-13T20:43:48.376Z,17.52
2023-02-13T20:46:18.047Z,20.85
2023-02-13T20:51:14.161Z,16.30
2023-02-13T20:53:42.574Z,20.48
2023-02-13T20:56:13.264Z,21.17
2023-02-13T20:58:41.352Z,21.75
2023-02-13T21:01:17.401Z,26.80
2023-02-13T21:03:45.056Z,24.45
2023-02-13T21:06:11.874Z,29.17
2023-02-13T21:08:38.492Z,21.25
2023-02-13T21:11:07.497Z,24.88
2023-02-13T21:13:35.029Z,23.65
2023-02-13T21:16:13.601Z,23.77
2023-02-13T21:18:40.935Z,24.02
2023-02-13T21:21:08.910Z,22.60
2023-02-13T21:23:36.140Z,24.05
2023-02-13T21:26:11.715Z,20.50
2023-02-13T21:28:39.051Z,39.45
2023-02-13T21:31:11.764Z,23.85
2023-02-13T21:33:38.471Z,25.38
2023-02-13T21:36:08.405Z,37.10
2023-02-13T21:38:36.448Z,28.60
2023-02-13T21:41:15.098Z,28.55
2023-02-13T21:43:46.493Z,36.65
2023-02-13T21:46:14.911Z,27.55
2023-02-13T21:48:42.552Z,27.60
2023-02-13T21:51:14.694Z,28.23
2023-02-13T21:53:41.902Z,28.75
2023-02-13T21:56:12.222Z,28.45
2023-02-13T21:58:40.308Z,23.92
2023-02-13T22:01:23.849Z,23.85
2023-02-13T22:03:52.938Z,21.33
2023-02-13T22:06:21.057Z,22.10
2023-02-13T22:08:48.389Z,26.75
2023-02-13T22:11:17.664Z,20.83
2023-02-13T22:13:44.313Z,19.98
2023-02-13T22:16:15.188Z,20.60
2023-02-13T22:18:43.832Z,34.03
2023-02-13T22:21:15.802Z,27.02
2023-02-13T22:23:44.275Z,25.92
2023-02-13T22:26:38.356Z,28.55
2023-02-13T22:29:10.320Z,25.70
2023-02-13T22:31:37.484Z,26.42
2023-02-13T22:34:05.819Z,22.95
2023-02-13T22:36:34.363Z,25.70
2023-02-13T22:39:01.110Z,21.70
2023-02-13T22:41:28.380Z,21.63
2023-02-13T22:43:55.082Z,25.63
2023-02-13T22:46:30.812Z,21.27
2023-02-13T22:48:58.793Z,23.88
2023-02-13T22:51:33.948Z,21.35
2023-02-13T22:54:01.263Z,25.48
2023-02-13T22:56:29.539Z,21.45
2023-02-13T22:58:56.615Z,22.30
2023-02-13T23:01:25.506Z,24.75
2023-02-13T23:03:52.389Z,28.35
2023-02-13T23:06:19.788Z,33.25
2023-02-13T23:08:49.008Z,29.88
2023-02-13T23:11:35.865Z,32.53
2023-02-13T23:14:04.142Z,32.17
2023-02-13T23:16:50.898Z,36.67
2023-02-13T23:19:17.620Z,26.13
2023-02-13T23:21:44.258Z,30.05
2023-02-13T23:24:11.233Z,40.00
2023-02-13T23:26:37.876Z,23.25
2023-02-13T23:29:04.547Z,27.55
2023-02-13T23:31:31.268Z,28.60
2023-02-13T23:33:58.065Z,29.98
2023-02-13T23:36:24.696Z,43.03
2023-02-13T23:38:51.336Z,43.15
2023-02-13T23:41:18.296Z,50.20
2023-02-13T23:43:44.866Z,40.88
2023-02-13T23:46:11.487Z,38.20
2023-02-13T23:48:38.106Z,37.60
2023-02-13T23:51:04.848Z,45.65
2023-02-13T23:53:35.338Z,46.72
2023-02-13T23:56:02.204Z,46.47
2023-02-13T23:58:28.847Z,41.13
